Kreschenka, Russia
Current Conditions -  °F | °C
As of 12:30 PM on Thursday 18 Dec 2014 (Local Time) from UNNT Reporting Station
Broken Clouds Broken Clouds  
Wind Chill:   Ceiling: 20000
Heat Index: 14°   Visibility: 6mi
Dew Point: 10°   Wind: 7mph
Humidity: 86%   Direction: 190°S
Pressure: 30.62"   Gusts: NA
Location:  55.85°N, 80.03°E
Report Text: UNNT 180530Z 19003MPS 9000 FEW021 BKN200 M10/M12 Q1037 2581015516490245 NOSIG RMK QFE767/1023
Loading
Personal Weather Stations






























Interactive Weather Map New forecast layout! Learn more

10-Day Weather Forecast

Advertisements
Track Severe Weather on mobile